createdAt,value
2023-04-23T04:15:18.377Z,52.00
2023-04-23T04:16:18.405Z,60.00
2023-04-23T04:17:18.357Z,72.00
2023-04-23T04:18:18.329Z,76.00
2023-04-23T04:19:18.605Z,84.00
2023-04-23T04:20:18.324Z,96.00
2023-04-23T04:21:18.287Z,104.00
2023-04-23T04:22:18.283Z,112.00
2023-04-23T04:23:18.264Z,112.00
2023-04-23T04:24:18.256Z,116.00
2023-04-23T04:25:18.249Z,120.00
2023-04-23T04:26:18.230Z,132.00
2023-04-23T04:27:18.213Z,140.00
2023-04-23T04:28:18.197Z,156.00
2023-04-23T04:29:18.187Z,172.00
2023-04-23T04:30:18.180Z,188.00
2023-04-23T04:31:18.165Z,204.00
2023-04-23T04:32:18.199Z,220.00
2023-04-23T04:33:18.135Z,228.00
2023-04-23T04:34:18.120Z,236.00
2023-04-23T04:35:18.117Z,248.00
2023-04-23T04:36:18.092Z,260.00
2023-04-23T04:37:18.078Z,264.00
2023-04-23T04:38:18.077Z,264.00
2023-04-23T04:39:18.088Z,268.00
2023-04-23T04:40:18.057Z,272.00
2023-04-23T04:41:18.020Z,276.00
2023-04-23T04:42:18.038Z,288.00
2023-04-23T04:43:17.994Z,304.00
2023-04-23T04:44:17.987Z,320.00
2023-04-23T04:45:17.980Z,348.00
2023-04-23T04:46:17.994Z,380.00
2023-04-23T04:47:17.940Z,412.00
2023-04-23T04:48:17.930Z,448.00
2023-04-23T04:49:17.915Z,484.00
2023-04-23T04:50:17.912Z,508.00
2023-04-23T04:51:17.906Z,532.00
2023-04-23T04:52:17.886Z,556.00
2023-04-23T04:53:17.861Z,584.00
2023-04-23T04:54:17.850Z,616.00
2023-04-23T04:55:17.842Z,652.00
2023-04-23T04:56:17.830Z,692.00
2023-04-23T04:57:17.810Z,728.00
2023-04-23T04:58:17.802Z,752.00
2023-04-23T04:59:17.780Z,776.00
2023-04-23T05:00:17.775Z,804.00
2023-04-23T05:01:17.796Z,828.00
2023-04-23T05:02:17.835Z,848.00
2023-04-23T05:03:17.885Z,872.00
2023-04-23T05:04:17.874Z,892.00
2023-04-23T05:05:17.715Z,912.00
2023-04-23T05:06:17.705Z,964.00
2023-04-23T05:07:17.671Z,1004.00
2023-04-23T05:08:17.664Z,1024.00
2023-04-23T05:09:17.653Z,1056.00
2023-04-23T05:10:17.644Z,1116.00
2023-04-23T05:11:17.648Z,1124.00
2023-04-23T05:12:17.617Z,1132.00
2023-04-23T05:13:17.595Z,1172.00
2023-04-23T05:14:17.606Z,1192.00
2023-04-23T05:15:17.571Z,1360.00
2023-04-23T05:16:17.607Z,1468.00
2023-04-23T05:17:17.715Z,1392.00
2023-04-23T05:18:17.528Z,1280.00
2023-04-23T05:19:17.551Z,1308.00
2023-04-23T05:20:17.512Z,1352.00
2023-04-23T05:21:17.500Z,1496.00
2023-04-23T05:22:17.488Z,1652.00
2023-04-23T05:23:17.466Z,1700.00
2023-04-23T05:24:17.461Z,1628.00
2023-04-23T05:25:17.444Z,1640.00
2023-04-23T05:26:17.437Z,1808.00
2023-04-23T05:27:17.412Z,2052.00
2023-04-23T05:28:17.458Z,2176.00
2023-04-23T05:29:17.391Z,2428.00
2023-04-23T05:30:17.374Z,2468.00
2023-04-23T05:31:17.386Z,2500.00
2023-04-23T05:32:24.517Z,2524.00
2023-04-23T05:33:17.349Z,2536.00
2023-04-23T05:34:17.356Z,2420.00
2023-04-23T05:35:17.305Z,2432.00
2023-04-23T05:36:17.332Z,2600.00
2023-04-23T05:37:17.319Z,2636.00
2023-04-23T05:38:17.280Z,2480.00
2023-04-23T05:39:17.271Z,2692.00
2023-04-23T05:40:17.250Z,2748.00
2023-04-23T05:41:17.240Z,2792.00
2023-04-23T05:42:17.222Z,2880.00
2023-04-23T05:43:17.211Z,2884.00
2023-04-23T05:44:17.194Z,2900.00
2023-04-23T05:45:17.167Z,2892.00
2023-04-23T05:46:17.280Z,2984.00
2023-04-23T05:47:17.146Z,3024.00
2023-04-23T05:48:17.138Z,3144.00
2023-04-23T05:49:17.120Z,3216.00
2023-04-23T05:50:17.119Z,3264.00
2023-04-23T05:51:17.132Z,3220.00
2023-04-23T05:52:17.083Z,3208.00
2023-04-23T05:53:17.072Z,3260.00
2023-04-23T05:54:17.073Z,3312.00
2023-04-23T05:55:17.046Z,3408.00
2023-04-23T05:56:17.054Z,3464.00
2023-04-23T05:57:17.019Z,3520.00
2023-04-23T05:58:17.035Z,3556.00
2023-04-23T05:59:16.984Z,3612.00
2023-04-23T06:00:17.007Z,3624.00
2023-04-23T06:01:16.978Z,3620.00
2023-04-23T06:02:17.022Z,3644.00
2023-04-23T06:03:17.172Z,3672.00
2023-04-23T06:04:17.137Z,3700.00
2023-04-23T06:05:16.993Z,3732.00
2023-04-23T06:06:16.898Z,3764.00
2023-04-23T06:07:16.877Z,3732.00
2023-04-23T06:08:16.868Z,3776.00
2023-04-23T06:09:16.849Z,3816.00
2023-04-23T06:10:16.849Z,3844.00
2023-04-23T06:11:16.831Z,3856.00
2023-04-23T06:12:16.812Z,3900.00
2023-04-23T06:13:16.789Z,3968.00
2023-04-23T06:14:16.780Z,4020.00
2023-04-23T06:15:16.762Z,4088.00
2023-04-23T06:16:16.787Z,4120.00
2023-04-23T06:17:16.744Z,4144.00
2023-04-23T06:18:16.781Z,4136.00
2023-04-23T06:19:17.009Z,4108.00
2023-04-23T06:20:16.714Z,4132.00
2023-04-23T06:21:18.031Z,4124.00
2023-04-23T06:22:16.666Z,4180.00
2023-04-23T06:23:16.670Z,4244.00
2023-04-23T06:24:16.794Z,4312.00
2023-04-23T06:25:16.636Z,4408.00
2023-04-23T06:26:16.686Z,4484.00
2023-04-23T06:27:16.597Z,4540.00
2023-04-23T06:28:16.600Z,4684.00
2023-04-23T06:29:16.592Z,4836.00
2023-04-23T06:30:16.599Z,4996.00
2023-04-23T06:31:16.596Z,5152.00
2023-04-23T06:32:19.020Z,5364.00
2023-04-23T06:33:16.519Z,5492.00
2023-04-23T06:34:16.519Z,5352.00
2023-04-23T06:35:16.500Z,5780.00
2023-04-23T06:36:16.493Z,5832.00
2023-04-23T06:37:16.464Z,5908.00
2023-04-23T06:38:16.461Z,6360.00
2023-04-23T06:39:16.452Z,5868.00
2023-04-23T06:40:16.436Z,6536.00
2023-04-23T06:41:16.419Z,5920.00
2023-04-23T06:42:16.400Z,6132.00
2023-04-23T06:43:16.402Z,5588.00
2023-04-23T06:44:16.391Z,5324.00
2023-04-23T06:45:16.373Z,5388.00
2023-04-23T06:46:16.352Z,5340.00
2023-04-23T06:47:16.329Z,5636.00
2023-04-23T06:48:16.368Z,5332.00
2023-04-23T06:49:16.301Z,5112.00
2023-04-23T06:50:16.324Z,4988.00
2023-04-23T06:51:16.292Z,5012.00
2023-04-23T06:52:16.275Z,4960.00
2023-04-23T06:53:16.257Z,4832.00
2023-04-23T06:54:16.241Z,4804.00
2023-04-23T06:55:16.240Z,4888.00
2023-04-23T06:56:16.252Z,5460.00
2023-04-23T06:57:16.196Z,5196.00
2023-04-23T06:58:16.680Z,4840.00
2023-04-23T06:59:16.163Z,4744.00
2023-04-23T07:00:16.190Z,4864.00
2023-04-23T07:01:16.287Z,5104.00
2023-04-23T07:02:16.168Z,4576.00
2023-04-23T07:03:16.195Z,4596.00
2023-04-23T07:04:16.133Z,4876.00
2023-04-23T07:05:16.129Z,4728.00
2023-04-23T07:06:16.099Z,4776.00
2023-04-23T07:07:16.079Z,4760.00
2023-04-23T07:08:16.072Z,4640.00
2023-04-23T07:09:16.057Z,4424.00
2023-04-23T07:10:17.955Z,4148.00
2023-04-23T07:11:16.040Z,3884.00
2023-04-23T07:12:16.022Z,3716.00
2023-04-23T07:13:16.008Z,3944.00
2023-04-23T07:14:15.996Z,4928.00
2023-04-23T07:15:16.026Z,3556.00
2023-04-23T07:16:16.007Z,3128.00
2023-04-23T07:17:15.982Z,3280.00
2023-04-23T07:18:15.968Z,3172.00
2023-04-23T07:19:15.938Z,3140.00
2023-04-23T07:20:15.938Z,3204.00
2023-04-23T07:21:15.910Z,3376.00
2023-04-23T07:22:15.898Z,3660.00
2023-04-23T07:23:15.873Z,3908.00
2023-04-23T07:24:15.864Z,4044.00
2023-04-23T07:25:15.868Z,4048.00
2023-04-23T07:26:15.844Z,3940.00
2023-04-23T07:27:15.826Z,3876.00
2023-04-23T07:28:15.825Z,3820.00
2023-04-23T07:29:15.805Z,3688.00
2023-04-23T07:30:15.827Z,3708.00
2023-04-23T07:31:15.789Z,3860.00
2023-04-23T07:32:15.798Z,4020.00
2023-04-23T07:33:15.748Z,4188.00
2023-04-23T07:34:15.734Z,4312.00
2023-04-23T07:35:15.723Z,4468.00
2023-04-23T07:36:15.728Z,4628.00
2023-04-23T07:37:15.690Z,4836.00
2023-04-23T07:38:15.691Z,4964.00
2023-04-23T07:39:15.669Z,5148.00
2023-04-23T07:40:15.665Z,5212.00
2023-04-23T07:41:15.644Z,5344.00
2023-04-23T07:42:15.633Z,5616.00
2023-04-23T07:43:15.640Z,5772.00
2023-04-23T07:44:15.620Z,5864.00
2023-04-23T07:45:15.611Z,5852.00
2023-04-23T07:46:15.611Z,5732.00
2023-04-23T07:47:15.579Z,5704.00
2023-04-23T07:48:15.559Z,5796.00
2023-04-23T07:49:15.551Z,5992.00
2023-04-23T07:50:15.561Z,5976.00
2023-04-23T07:51:15.509Z,5960.00
2023-04-23T07:52:15.552Z,5960.00
2023-04-23T07:53:15.484Z,5656.00
2023-04-23T07:54:15.471Z,5416.00
2023-04-23T07:55:15.526Z,5248.00
2023-04-23T07:56:15.452Z,5180.00
2023-04-23T07:57:15.444Z,6044.00
2023-04-23T07:58:15.440Z,5704.00
2023-04-23T07:59:15.410Z,5524.00
2023-04-23T08:00:15.402Z,5584.00
2023-04-23T08:01:15.384Z,5796.00
2023-04-23T08:02:15.422Z,5952.00
2023-04-23T08:03:15.448Z,6148.00
2023-04-23T08:04:15.723Z,6312.00
2023-04-23T08:05:15.371Z,6388.00
2023-04-23T08:06:15.325Z,6404.00
2023-04-23T08:07:15.308Z,6208.00
2023-04-23T08:08:15.280Z,6100.00
2023-04-23T08:09:15.274Z,6064.00
2023-04-23T08:10:15.270Z,6152.00
2023-04-23T08:11:15.251Z,6064.00
2023-04-23T08:12:15.235Z,5944.00
2023-04-23T08:13:15.217Z,5812.00
2023-04-23T08:14:15.195Z,5728.00
2023-04-23T08:15:15.209Z,5756.00
2023-04-23T08:16:15.205Z,5792.00
2023-04-23T08:17:15.173Z,6092.00
2023-04-23T08:18:15.142Z,5928.00
2023-04-23T08:19:15.151Z,5724.00
2023-04-23T08:20:15.142Z,5660.00
2023-04-23T08:21:15.111Z,5780.00
2023-04-23T08:22:15.089Z,5784.00
2023-04-23T08:23:15.085Z,5764.00
2023-04-23T08:24:15.096Z,5816.00
2023-04-23T08:25:15.078Z,6732.00
2023-04-23T08:26:15.056Z,6336.00
2023-04-23T08:27:15.029Z,5124.00
2023-04-23T08:28:15.009Z,5424.00
2023-04-23T08:29:15.013Z,5144.00
2023-04-23T08:30:14.993Z,5236.00
2023-04-23T08:31:25.533Z,5036.00
2023-04-23T08:32:16.989Z,5380.00
2023-04-23T08:33:14.955Z,5416.00
2023-04-23T08:34:14.961Z,5456.00
2023-04-23T08:35:14.936Z,5388.00
2023-04-23T08:36:14.904Z,5320.00
2023-04-23T08:37:27.189Z,5228.00
2023-04-23T08:38:15.879Z,5180.00
2023-04-23T08:39:14.879Z,5144.00
2023-04-23T08:40:14.908Z,5132.00
2023-04-23T08:41:14.837Z,5092.00
2023-04-23T08:42:14.850Z,5080.00
2023-04-23T08:43:14.823Z,5088.00
2023-04-23T08:44:14.803Z,5124.00
2023-04-23T08:45:14.816Z,5168.00
2023-04-23T08:46:14.806Z,5180.00
2023-04-23T08:47:14.767Z,5184.00
2023-04-23T08:48:14.749Z,5208.00
2023-04-23T08:49:14.738Z,5260.00
2023-04-23T08:50:14.740Z,5244.00
2023-04-23T08:51:14.702Z,5232.00
2023-04-23T08:52:14.695Z,5248.00
2023-04-23T08:53:14.690Z,5260.00
2023-04-23T08:54:14.671Z,5340.00
2023-04-23T08:55:14.668Z,5384.00
2023-04-23T08:56:14.656Z,5548.00
2023-04-23T08:57:14.633Z,5676.00
2023-04-23T08:58:14.644Z,5600.00
2023-04-23T08:59:14.605Z,5520.00
2023-04-23T09:00:14.626Z,5184.00
2023-04-23T09:01:14.638Z,5596.00
2023-04-23T09:02:14.676Z,5808.00
2023-04-23T09:03:14.635Z,5744.00
2023-04-23T09:04:14.539Z,5828.00
2023-04-23T09:05:14.538Z,5880.00
2023-04-23T09:06:14.515Z,5972.00
2023-04-23T09:07:14.496Z,6216.00
2023-04-23T09:08:14.498Z,6604.00
2023-04-23T09:09:14.467Z,7020.00
2023-04-23T09:10:17.734Z,7140.00
2023-04-23T09:11:14.449Z,6916.00
2023-04-23T09:12:14.439Z,6992.00
2023-04-23T09:13:14.420Z,6968.00
2023-04-23T09:14:14.404Z,7328.00
2023-04-23T09:15:14.404Z,7388.00
2023-04-23T09:16:14.413Z,7612.00
2023-04-23T09:17:14.360Z,8536.00
2023-04-23T09:18:14.357Z,8168.00
2023-04-23T09:19:14.340Z,7868.00
2023-04-23T09:20:14.356Z,6484.00
2023-04-23T09:21:14.319Z,7400.00
2023-04-23T09:22:14.308Z,9552.00
2023-04-23T09:23:14.280Z,9240.00
2023-04-23T09:24:14.269Z,8772.00
2023-04-23T09:25:14.267Z,8792.00
2023-04-23T09:26:14.266Z,8404.00
2023-04-23T09:27:14.237Z,10140.00
2023-04-23T09:28:14.217Z,11196.00
2023-04-23T09:29:14.201Z,10432.00
2023-04-23T09:30:14.206Z,8584.00
2023-04-23T09:31:14.185Z,9328.00
2023-04-23T09:32:14.263Z,9704.00
2023-04-23T09:33:14.160Z,10444.00
2023-04-23T09:34:14.150Z,10996.00
2023-04-23T09:35:14.140Z,10236.00
2023-04-23T09:36:14.133Z,8848.00
2023-04-23T09:37:14.120Z,8456.00
2023-04-23T09:38:14.100Z,8260.00
2023-04-23T09:39:14.084Z,9376.00
2023-04-23T09:40:14.087Z,8312.00
2023-04-23T09:41:14.050Z,8064.00
2023-04-23T09:42:14.037Z,8076.00
2023-04-23T09:43:14.019Z,8804.00
2023-04-23T09:44:14.016Z,9768.00
2023-04-23T09:45:14.007Z,10736.00
2023-04-23T09:46:14.021Z,10572.00
2023-04-23T09:47:13.960Z,10368.00
2023-04-23T09:48:13.967Z,8936.00
2023-04-23T09:49:13.935Z,8748.00
2023-04-23T09:50:13.948Z,7364.00
2023-04-23T09:51:13.915Z,7964.00
2023-04-23T09:52:13.906Z,8748.00
2023-04-23T09:53:13.882Z,8792.00
2023-04-23T09:54:13.876Z,9636.00
2023-04-23T09:55:13.870Z,9240.00
2023-04-23T09:56:13.845Z,10356.00
2023-04-23T09:57:13.836Z,11712.00
2023-04-23T09:58:13.837Z,11264.00
2023-04-23T09:59:13.806Z,10904.00
2023-04-23T10:00:14.801Z,12664.00
2023-04-23T10:01:13.807Z,11576.00
2023-04-23T10:02:14.017Z,11980.00
2023-04-23T10:03:13.821Z,12536.00
2023-04-23T10:04:13.953Z,12388.00
2023-04-23T10:05:23.021Z,11012.00
2023-04-23T10:06:25.784Z,9624.00
2023-04-23T10:08:13.976Z,9920.00
2023-04-23T10:09:13.670Z,7516.00
2023-04-23T10:10:13.668Z,7092.00
2023-04-23T10:11:20.762Z,6608.00
2023-04-23T10:13:13.620Z,6288.00
2023-04-23T10:14:13.606Z,6220.00
2023-04-23T10:15:13.580Z,6232.00
2023-04-23T10:16:22.233Z,6400.00
2023-04-23T10:17:14.568Z,6840.00
2023-04-23T10:18:13.557Z,6444.00
2023-04-23T10:19:13.534Z,5800.00
2023-04-23T10:20:13.564Z,6132.00
2023-04-23T10:21:13.509Z,6696.00
2023-04-23T10:23:13.486Z,7088.00
2023-04-23T10:24:13.472Z,7808.00
2023-04-23T10:25:13.470Z,9280.00
2023-04-23T10:26:13.459Z,10632.00
2023-04-23T10:27:24.853Z,11504.00
2023-04-23T10:28:14.424Z,10752.00
2023-04-23T10:29:13.401Z,11132.00
2023-04-23T10:30:13.422Z,11212.00
2023-04-23T10:31:13.408Z,11284.00
2023-04-23T10:32:13.396Z,10664.00
2023-04-23T10:33:26.536Z,11324.00
2023-04-23T10:34:14.393Z,10884.00
2023-04-23T10:35:13.333Z,12872.00
2023-04-23T10:36:13.314Z,11488.00
2023-04-23T10:37:13.316Z,12704.00
2023-04-23T10:38:13.288Z,11072.00
2023-04-23T10:39:15.855Z,11608.00
2023-04-23T10:40:14.536Z,10444.00
2023-04-23T10:41:13.245Z,8720.00
2023-04-23T10:42:13.245Z,8252.00
2023-04-23T10:43:13.211Z,7884.00
2023-04-23T10:44:15.934Z,8956.00
2023-04-23T10:45:22.578Z,10700.00
2023-04-23T10:46:14.184Z,12304.00
2023-04-23T10:47:13.167Z,12656.00
2023-04-23T10:48:13.155Z,11336.00
2023-04-23T10:49:13.147Z,9460.00
2023-04-23T10:50:13.144Z,8732.00
2023-04-23T10:52:20.636Z,7464.00
2023-04-23T10:53:14.100Z,7596.00
2023-04-23T10:54:13.086Z,8072.00
2023-04-23T10:55:13.064Z,8364.00
2023-04-23T10:56:13.047Z,8940.00
2023-04-23T10:57:13.048Z,10212.00
2023-04-23T10:58:13.031Z,12116.00
2023-04-23T10:59:13.004Z,12560.00
2023-04-23T11:00:13.029Z,12824.00
2023-04-23T11:01:12.983Z,12468.00
2023-04-23T11:02:13.045Z,12584.00
2023-04-23T11:03:13.012Z,13088.00
2023-04-23T11:04:13.054Z,12800.00
2023-04-23T11:05:12.936Z,12352.00
2023-04-23T11:06:12.915Z,12952.00
2023-04-23T11:07:12.905Z,13436.00
2023-04-23T11:08:19.253Z,14528.00
2023-04-23T11:09:13.867Z,14880.00
2023-04-23T11:10:12.882Z,14084.00
2023-04-23T11:11:12.847Z,14592.00
2023-04-23T11:12:12.838Z,14208.00
2023-04-23T11:13:12.819Z,12504.00
2023-04-23T11:14:12.822Z,12980.00
2023-04-23T11:15:12.808Z,13380.00
2023-04-23T11:16:12.877Z,14240.00
2023-04-23T11:17:12.773Z,13748.00
2023-04-23T11:18:12.758Z,14012.00
2023-04-23T11:19:13.050Z,14376.00
2023-04-23T11:20:12.755Z,14348.00
2023-04-23T11:21:12.720Z,14944.00
2023-04-23T11:22:12.706Z,15072.00
2023-04-23T11:23:12.689Z,14312.00
2023-04-23T11:24:12.688Z,14580.00
2023-04-23T11:25:12.670Z,14252.00
2023-04-23T11:26:12.674Z,13392.00
2023-04-23T11:27:12.634Z,11012.00
2023-04-23T11:28:12.626Z,11868.00
2023-04-23T11:29:12.613Z,12684.00
2023-04-23T11:30:12.659Z,14056.00
2023-04-23T11:31:12.587Z,12272.00
2023-04-23T11:32:12.613Z,12128.00
2023-04-23T11:33:19.711Z,12784.00
2023-04-23T11:34:12.538Z,13500.00
2023-04-23T11:35:13.813Z,13436.00
2023-04-23T11:36:12.527Z,12880.00
2023-04-23T11:37:12.538Z,12536.00
2023-04-23T11:38:12.488Z,12344.00
2023-04-23T11:39:12.476Z,11960.00
2023-04-23T11:40:12.523Z,11560.00
2023-04-23T11:41:12.474Z,11712.00
2023-04-23T11:42:12.435Z,11980.00
2023-04-23T11:43:12.426Z,12608.00
2023-04-23T11:44:12.407Z,13216.00
2023-04-23T11:45:12.421Z,13432.00
2023-04-23T11:46:12.420Z,13392.00
2023-04-23T11:47:12.375Z,13060.00
2023-04-23T11:48:12.348Z,12876.00
2023-04-23T11:49:12.344Z,13912.00
2023-04-23T11:50:12.391Z,15648.00
2023-04-23T11:51:12.321Z,16416.00
2023-04-23T11:52:12.305Z,15584.00
2023-04-23T11:53:12.300Z,14816.00
2023-04-23T11:54:12.273Z,14036.00
2023-04-23T11:55:12.288Z,13340.00
2023-04-23T11:56:12.253Z,12752.00
2023-04-23T11:57:12.253Z,12272.00
2023-04-23T11:58:12.227Z,11608.00
2023-04-23T11:59:12.227Z,11000.00
2023-04-23T12:00:12.218Z,10508.00
2023-04-23T12:01:12.188Z,9880.00
2023-04-23T12:02:12.222Z,9372.00
2023-04-23T12:03:12.384Z,9068.00
2023-04-23T12:04:12.372Z,9076.00
2023-04-23T12:05:12.175Z,8892.00
2023-04-23T12:06:12.120Z,8648.00
2023-04-23T12:07:25.380Z,8648.00
2023-04-23T12:08:13.098Z,8880.00
2023-04-23T12:09:12.079Z,9220.00
2023-04-23T12:10:12.097Z,9688.00
2023-04-23T12:11:12.069Z,10184.00
2023-04-23T12:12:12.046Z,10640.00
2023-04-23T12:13:12.031Z,11000.00
2023-04-23T12:14:12.026Z,11364.00
2023-04-23T12:15:12.000Z,11452.00
2023-04-23T12:16:12.098Z,11312.00
2023-04-23T12:17:11.983Z,10928.00
2023-04-23T12:18:11.973Z,10324.00
2023-04-23T12:19:11.943Z,9972.00
2023-04-23T12:20:11.960Z,9952.00
2023-04-23T12:21:11.939Z,10344.00
2023-04-23T12:22:11.914Z,10060.00
2023-04-23T12:23:11.897Z,9536.00
2023-04-23T12:24:11.903Z,8940.00
2023-04-23T12:25:11.875Z,8628.00
2023-04-23T12:26:11.882Z,8280.00
2023-04-23T12:27:11.843Z,7776.00
2023-04-23T12:28:11.851Z,7492.00
2023-04-23T12:29:11.817Z,6952.00
2023-04-23T12:30:12.088Z,6504.00
2023-04-23T12:31:11.817Z,6408.00
2023-04-23T12:32:11.825Z,6472.00
2023-04-23T12:33:11.769Z,6560.00
2023-04-23T12:34:11.750Z,6684.00
2023-04-23T12:35:11.745Z,6872.00
2023-04-23T12:36:11.738Z,7300.00
2023-04-23T12:37:11.707Z,7772.00
2023-04-23T12:38:11.701Z,7896.00
2023-04-23T12:39:11.690Z,7432.00
2023-04-23T12:40:11.677Z,6700.00
2023-04-23T12:41:11.676Z,5588.00
2023-04-23T12:42:11.646Z,4460.00
2023-04-23T12:43:11.638Z,3824.00
2023-04-23T12:44:11.629Z,3332.00
2023-04-23T12:45:11.610Z,2948.00
2023-04-23T12:46:11.648Z,2640.00
2023-04-23T12:47:11.667Z,2364.00
2023-04-23T12:48:11.566Z,2104.00
2023-04-23T12:49:11.557Z,1944.00
2023-04-23T12:50:11.544Z,1884.00
2023-04-23T12:51:11.540Z,1884.00
2023-04-23T12:52:13.370Z,1988.00
2023-04-23T12:53:11.498Z,2256.00
2023-04-23T12:54:11.489Z,2652.00
2023-04-23T12:55:11.470Z,3184.00
2023-04-23T12:56:11.481Z,3896.00
2023-04-23T12:57:11.484Z,4704.00
2023-04-23T12:58:11.439Z,5604.00
2023-04-23T12:59:11.412Z,6660.00
2023-04-23T13:00:11.408Z,7820.00
2023-04-23T13:01:11.489Z,9296.00
2023-04-23T13:02:11.507Z,12576.00
2023-04-23T13:03:11.600Z,14684.00
2023-04-23T13:04:11.358Z,18400.00
2023-04-23T13:05:11.362Z,10232.00
2023-04-23T13:06:11.348Z,10252.00
2023-04-23T13:07:11.327Z,10680.00
2023-04-23T13:08:11.308Z,11748.00
2023-04-23T13:09:11.337Z,19648.00
2023-04-23T13:10:11.310Z,16288.00
2023-04-23T13:11:11.291Z,20032.00
2023-04-23T13:12:11.253Z,24352.00
2023-04-23T13:13:11.232Z,13948.00
2023-04-23T13:14:11.222Z,29728.00
2023-04-23T13:15:11.222Z,13364.00
2023-04-23T13:16:11.267Z,10796.00
2023-04-23T13:17:11.182Z,11660.00
2023-04-23T13:18:11.172Z,11220.00
2023-04-23T13:19:11.155Z,10928.00
2023-04-23T13:20:11.166Z,12628.00
2023-04-23T13:21:11.128Z,18656.00
2023-04-23T13:22:11.122Z,11624.00
2023-04-23T13:23:11.098Z,12068.00
2023-04-23T13:24:11.091Z,20192.00
2023-04-23T13:25:11.088Z,20096.00
2023-04-23T13:26:11.068Z,19264.00
2023-04-23T13:27:11.050Z,18784.00
2023-04-23T13:28:11.034Z,20160.00
2023-04-23T13:29:11.017Z,21792.00
2023-04-23T13:30:11.022Z,23808.00
2023-04-23T13:31:10.999Z,23392.00
2023-04-23T13:32:11.021Z,23360.00
2023-04-23T13:33:10.967Z,22688.00
2023-04-23T13:34:10.961Z,25024.00
2023-04-23T13:35:10.959Z,26368.00
2023-04-23T13:36:10.934Z,27936.00
2023-04-23T13:37:10.920Z,27648.00
2023-04-23T13:38:10.904Z,33312.00
2023-04-23T13:39:10.903Z,34560.00
2023-04-23T13:40:10.883Z,32096.00
2023-04-23T13:41:10.864Z,35872.00
2023-04-23T13:42:10.858Z,46720.00
2023-04-23T13:43:10.837Z,58720.00
2023-04-23T13:44:10.839Z,61632.00
2023-04-23T13:45:11.350Z,62048.00
2023-04-23T13:46:10.853Z,59968.00
2023-04-23T13:47:10.792Z,60928.00
2023-04-23T13:48:10.773Z,60032.00
2023-04-23T13:49:10.776Z,64448.00
2023-04-23T13:50:10.747Z,66624.00
2023-04-23T13:51:25.995Z,63488.00
2023-04-23T13:52:11.718Z,59936.00
2023-04-23T13:53:10.705Z,58624.00
2023-04-23T13:54:10.709Z,54592.00
2023-04-23T13:55:10.691Z,49344.00
2023-04-23T13:56:10.676Z,31168.00
2023-04-23T13:57:10.654Z,26656.00
2023-04-23T13:58:12.211Z,21632.00
2023-04-23T13:59:18.840Z,22208.00
2023-04-23T14:00:11.631Z,24288.00
2023-04-23T14:01:10.634Z,21504.00
2023-04-23T14:02:10.611Z,29568.00
2023-04-23T14:03:10.709Z,31008.00
2023-04-23T14:04:13.010Z,29696.00
2023-04-23T14:05:10.566Z,32896.00
2023-04-23T14:06:10.537Z,31872.00
2023-04-23T14:07:10.537Z,22976.00
2023-04-23T14:08:10.513Z,22176.00
2023-04-23T14:09:10.516Z,24160.00
2023-04-23T14:10:10.493Z,41472.00
2023-04-23T14:11:10.468Z,21184.00
2023-04-23T14:12:10.467Z,25728.00
2023-04-23T14:13:10.445Z,39520.00
2023-04-23T14:14:10.440Z,44160.00
2023-04-23T14:15:10.435Z,30816.00
2023-04-23T14:16:10.421Z,21312.00
2023-04-23T14:17:10.387Z,25984.00
2023-04-23T14:18:10.384Z,18624.00
2023-04-23T14:19:10.367Z,15264.00
2023-04-23T14:20:10.365Z,17760.00
2023-04-23T14:21:10.334Z,17984.00
2023-04-23T14:22:10.327Z,23712.00
2023-04-23T14:23:10.299Z,9552.00
2023-04-23T14:24:10.324Z,9332.00
2023-04-23T14:25:10.289Z,9112.00
2023-04-23T14:26:10.273Z,8284.00
2023-04-23T14:27:10.262Z,7472.00
2023-04-23T14:28:10.246Z,6856.00
2023-04-23T14:29:10.231Z,6504.00
2023-04-23T14:30:10.258Z,6324.00
2023-04-23T14:31:10.215Z,6164.00
2023-04-23T14:32:10.215Z,6076.00
2023-04-23T14:33:10.217Z,6364.00
2023-04-23T14:34:10.161Z,6880.00
2023-04-23T14:35:10.162Z,7336.00
2023-04-23T14:36:10.133Z,7684.00
2023-04-23T14:37:10.127Z,7960.00
2023-04-23T14:38:10.120Z,8112.00
2023-04-23T14:39:10.112Z,8060.00
2023-04-23T14:40:10.102Z,8620.00
2023-04-23T14:41:10.086Z,8340.00
2023-04-23T14:42:10.053Z,7780.00
2023-04-23T14:43:15.435Z,7648.00
2023-04-23T14:44:11.036Z,7148.00
2023-04-23T14:45:10.043Z,6972.00
2023-04-23T14:46:10.034Z,6520.00
2023-04-23T14:47:09.998Z,5908.00
2023-04-23T14:48:09.977Z,6040.00
2023-04-23T14:49:09.985Z,6624.00
2023-04-23T14:50:09.966Z,7652.00
2023-04-23T14:51:09.962Z,9052.00
2023-04-23T14:52:09.931Z,10832.00
2023-04-23T14:53:09.925Z,11872.00
2023-04-23T14:54:09.908Z,10304.00
2023-04-23T14:55:09.897Z,6496.00
2023-04-23T14:56:09.874Z,5832.00
2023-04-23T14:57:09.862Z,5484.00
2023-04-23T14:58:09.859Z,5204.00
2023-04-23T14:59:09.836Z,4896.00
2023-04-23T15:00:09.853Z,4620.00
2023-04-23T15:01:09.809Z,4540.00
2023-04-23T15:02:09.874Z,4540.00
2023-04-23T15:03:09.914Z,4636.00
2023-04-23T15:04:09.879Z,4764.00
2023-04-23T15:05:09.782Z,4984.00
2023-04-23T15:06:09.749Z,5272.00
2023-04-23T15:07:09.726Z,5580.00
2023-04-23T15:08:09.710Z,5908.00
2023-04-23T15:09:09.727Z,7164.00
2023-04-23T15:10:09.707Z,6384.00
2023-04-23T15:11:09.701Z,7444.00
2023-04-23T15:12:09.653Z,7016.00
2023-04-23T15:13:09.688Z,6596.00
2023-04-23T15:14:09.647Z,7944.00
2023-04-23T15:15:09.610Z,6516.00
2023-04-23T15:16:09.614Z,6876.00
2023-04-23T15:17:09.624Z,6588.00
2023-04-23T15:18:09.621Z,6624.00
2023-04-23T15:19:09.589Z,6284.00
2023-04-23T15:20:09.547Z,5824.00
2023-04-23T15:21:09.543Z,5572.00
2023-04-23T15:22:09.551Z,5280.00
2023-04-23T15:23:09.526Z,4908.00
2023-04-23T15:24:09.515Z,4636.00
2023-04-23T15:25:09.493Z,4440.00
2023-04-23T15:26:09.475Z,4296.00
2023-04-23T15:27:09.465Z,4180.00
2023-04-23T15:28:09.448Z,4072.00
2023-04-23T15:29:09.454Z,4008.00
2023-04-23T15:30:09.420Z,3996.00
2023-04-23T15:31:09.414Z,4036.00
2023-04-23T15:32:09.421Z,4088.00
2023-04-23T15:33:09.387Z,4124.00
2023-04-23T15:34:09.827Z,4184.00
2023-04-23T15:35:09.368Z,4244.00
2023-04-23T15:36:09.346Z,4272.00
2023-04-23T15:37:09.341Z,4244.00
2023-04-23T15:38:09.327Z,4168.00
2023-04-23T15:39:09.391Z,4052.00
2023-04-23T15:40:09.297Z,3940.00
2023-04-23T15:41:09.299Z,3840.00
2023-04-23T15:42:09.267Z,3768.00
2023-04-23T15:43:09.256Z,3732.00
2023-04-23T15:44:09.249Z,3736.00
2023-04-23T15:45:09.224Z,3744.00
2023-04-23T15:46:09.257Z,3752.00
2023-04-23T15:47:09.203Z,3744.00
2023-04-23T15:48:09.185Z,3724.00
2023-04-23T15:49:09.217Z,3712.00
2023-04-23T15:50:09.173Z,3768.00
2023-04-23T15:51:09.157Z,3968.00
2023-04-23T15:52:09.146Z,4040.00
2023-04-23T15:53:09.138Z,3464.00
2023-04-23T15:54:09.171Z,3336.00
2023-04-23T15:55:09.140Z,3112.00
2023-04-23T15:56:09.091Z,3144.00
2023-04-23T15:57:09.089Z,2980.00
2023-04-23T15:58:09.053Z,2948.00
2023-04-23T15:59:09.057Z,2936.00
2023-04-23T16:00:09.027Z,2848.00
2023-04-23T16:01:09.024Z,2768.00
2023-04-23T16:02:09.071Z,2716.00
2023-04-23T16:03:09.139Z,2696.00
2023-04-23T16:04:11.594Z,2680.00
2023-04-23T16:05:08.956Z,2636.00
2023-04-23T16:06:09.927Z,2592.00
2023-04-23T16:07:08.935Z,2544.00
2023-04-23T16:08:08.936Z,2444.00
2023-04-23T16:09:09.122Z,2344.00
2023-04-23T16:10:08.886Z,2260.00
2023-04-23T16:11:08.935Z,2220.00
2023-04-23T16:12:08.994Z,2168.00
2023-04-23T16:13:08.852Z,2096.00
2023-04-23T16:14:08.846Z,2024.00
2023-04-23T16:15:08.825Z,1984.00
2023-04-23T16:16:08.804Z,1948.00
2023-04-23T16:17:08.842Z,1892.00
2023-04-23T16:18:08.884Z,1820.00
2023-04-23T16:19:08.798Z,1760.00
2023-04-23T16:20:08.775Z,1680.00